Gloversville, New York
Current Conditions -  °F | °C
As of 4:35 AM on Tuesday 21 Oct 2014 (Local Time) from KNY0 Reporting Station
Overcast Overcast  
Wind Chill: 40°   Ceiling: 6000
Heat Index: 43°   Visibility: 10mi
Dew Point: 38°   Wind: 5mph
Humidity: 82%   Direction: 30°NNE
Pressure: 29.89"   Gusts: NA
Location:  43.06°N, 74.34°W
Report Text: KNY0 210835Z AUTO 03004KT 10SM OVC060 06/03 A2989 RMK AO2 T00620033
Loading
Personal Weather Stations






























Interactive Weather Map
Tropical Storm Tracking
New forecast layout! Learn more

10-Day Weather Forecast

Advertisements
Track Severe Weather on mobile